Time;durP1;ratioP1;P1;durP2;ratioP2;P2;SDS_P1;SDS_P2;PMS_P1;PMS_P2;Temp;Humidity;BMP_temperature;BMP_pressure;BME280_temperature;BME280_humidity;BME280_pressure;Samples;Min_cycle;Max_cycle;Signal;HPM_P1;HPM_P2
2023/09/19 00:00:38;;;;;;;;;;;14.60;99.90;;;;;;5017152;28;19921;-83
2023/09/19 00:03:05;;;;;;;;;;;14.60;99.90;;;;;;5021055;27;19928;-83
2023/09/19 00:05:34;;;;;;;;;;;14.50;99.90;;;;;;5003206;28;20011;-86
2023/09/19 00:08:00;;;;;;;;;;;14.50;99.90;;;;;;5004212;28;19932;-86
2023/09/19 00:10:26;;;;;;;;;;;14.40;99.90;;;;;;5017703;28;19921;-88
2023/09/19 00:12:55;;;;;;;;;;;14.40;99.90;;;;;;5008110;28;19928;-87
2023/09/19 00:15:22;;;;;;;;;;;14.40;99.90;;;;;;4970887;28;19937;-84
2023/09/19 00:17:47;;;;;;;;;;;14.40;99.90;;;;;;4993043;28;20427;-87
2023/09/19 00:20:18;;;;;;;;;;;14.30;99.90;;;;;;4991945;28;19972;-86
2023/09/19 00:22:44;;;;;;;;;;;14.30;99.90;;;;;;4981662;28;20022;-86
2023/09/19 00:25:11;;;;;;;;;;;14.20;99.90;;;;;;4988533;28;20368;-86
2023/09/19 00:27:41;;;;;;;;;;;14.20;99.90;;;;;;4979875;28;19970;-86
2023/09/19 00:30:12;;;;;;;;;;;14.20;99.90;;;;;;4978710;28;20340;-87
2023/09/19 00:32:38;;;;;;;;;;;14.10;99.90;;;;;;4978436;28;19928;-85
2023/09/19 00:35:04;;;;;;;;;;;14.10;99.90;;;;;;4990556;28;19930;-87
2023/09/19 00:37:30;;;;;;;;;;;14.10;99.90;;;;;;4975531;28;20036;-86
2023/09/19 00:39:56;;;;;;;;;;;14.00;99.90;;;;;;4993964;28;20268;-86
2023/09/19 00:42:21;;;;;;;;;;;14.00;99.90;;;;;;4964989;28;19964;-86
2023/09/19 00:44:50;;;;;;;;;;;14.00;99.90;;;;;;4993936;28;19928;-87
2023/09/19 00:47:17;;;;;;;;;;;13.90;99.90;;;;;;4987798;28;20030;-86
2023/09/19 00:49:49;;;;;;;;;;;13.90;99.90;;;;;;4976818;28;19925;-86
2023/09/19 00:52:15;;;;;;;;;;;13.90;99.90;;;;;;4977121;28;19932;-86
2023/09/19 00:54:44;;;;;;;;;;;13.80;99.90;;;;;;4993289;28;19929;-85
2023/09/19 00:57:10;;;;;;;;;;;13.80;99.90;;;;;;4988999;28;19979;-86
2023/09/19 00:59:36;;;;;;;;;;;13.80;99.90;;;;;;4990223;28;21713;-87
2023/09/19 01:02:02;;;;;;;;;;;13.80;99.90;;;;;;4984465;28;20485;-87
2023/09/19 01:04:28;;;;;;;;;;;13.70;99.90;;;;;;4980786;28;19926;-86
2023/09/19 01:06:54;;;;;;;;;;;13.70;99.90;;;;;;4970517;28;19948;-86
2023/09/19 01:09:20;;;;;;;;;;;13.70;99.90;;;;;;4992486;28;19929;-85
2023/09/19 01:11:48;;;;;;;;;;;13.70;99.90;;;;;;4978973;28;19987;-87
2023/09/19 01:14:13;;;;;;;;;;;13.70;99.90;;;;;;4977284;28;19921;-86
2023/09/19 01:16:47;;;;;;;;;;;13.70;99.90;;;;;;4975119;28;19974;-87
2023/09/19 01:19:32;;;;;;;;;;;13.70;99.90;;;;;;4978757;28;19965;-86
2023/09/19 01:22:07;;;;;;;;;;;13.70;99.90;;;;;;4979032;28;19936;-86
2023/09/19 01:24:51;;;;;;;;;;;13.70;99.90;;;;;;5078495;28;20443;-81
2023/09/19 01:27:17;;;;;;;;;;;13.70;99.90;;;;;;4989682;28;19925;-81
2023/09/19 01:29:44;;;;;;;;;;;13.70;99.90;;;;;;4992689;28;19982;-81
2023/09/19 01:32:14;;;;;;;;;;;13.70;99.90;;;;;;4976138;28;19921;-80
2023/09/19 01:34:47;;;;;;;;;;;13.70;99.90;;;;;;4975096;28;19930;-86
2023/09/19 01:37:14;;;;;;;;;;;13.70;99.90;;;;;;4976626;28;20305;-88
2023/09/19 01:39:40;;;;;;;;;;;13.70;99.90;;;;;;4978599;28;20439;-86
2023/09/19 01:42:16;;;;;;;;;;;13.60;99.90;;;;;;4988949;28;19965;-88
2023/09/19 01:44:48;;;;;;;;;;;13.70;99.90;;;;;;4969584;28;20025;-86
2023/09/19 01:47:26;;;;;;;;;;;13.60;99.90;;;;;;4989179;28;20323;-85
2023/09/19 01:50:00;;;;;;;;;;;13.60;99.90;;;;;;4989864;28;19944;-87
2023/09/19 01:52:30;;;;;;;;;;;13.60;99.90;;;;;;4976075;28;19928;-87
2023/09/19 01:55:07;;;;;;;;;;;13.50;99.90;;;;;;4991485;28;20392;-85
2023/09/19 01:57:35;;;;;;;;;;;13.50;99.90;;;;;;4987267;28;19925;-88
2023/09/19 02:00:09;;;;;;;;;;;13.50;99.90;;;;;;4993230;28;20295;-86
2023/09/19 02:02:38;;;;;;;;;;;13.50;99.90;;;;;;4971516;28;20494;-87
2023/09/19 02:05:04;;;;;;;;;;;13.50;99.90;;;;;;4991307;28;19947;-87
2023/09/19 02:07:31;;;;;;;;;;;13.40;99.90;;;;;;4986669;28;19930;-86
2023/09/19 02:09:59;;;;;;;;;;;13.40;99.90;;;;;;4977601;28;20006;-87
2023/09/19 02:12:28;;;;;;;;;;;13.30;99.90;;;;;;4998881;28;19935;-87
2023/09/19 02:14:57;;;;;;;;;;;13.30;99.90;;;;;;5016218;28;20997;-85
2023/09/19 02:17:25;;;;;;;;;;;13.30;99.90;;;;;;5002241;28;19921;-80
2023/09/19 02:19:52;;;;;;;;;;;13.20;99.90;;;;;;5001285;28;20003;-81
2023/09/19 02:22:18;;;;;;;;;;;13.20;99.90;;;;;;5001604;28;20434;-80
2023/09/19 02:24:43;;;;;;;;;;;13.20;99.90;;;;;;5002315;28;19928;-79
2023/09/19 02:27:12;;;;;;;;;;;13.10;99.90;;;;;;5000837;28;19929;-79
2023/09/19 02:29:38;;;;;;;;;;;13.10;99.90;;;;;;4998807;28;19960;-85
2023/09/19 02:32:03;;;;;;;;;;;13.10;99.90;;;;;;5016470;28;20512;-86
2023/09/19 02:34:29;;;;;;;;;;;13.10;99.90;;;;;;5015769;28;19921;-85
2023/09/19 02:36:55;;;;;;;;;;;13.10;99.90;;;;;;5007528;28;19931;-85
2023/09/19 02:39:23;;;;;;;;;;;13.10;99.90;;;;;;5018952;28;20435;-86
2023/09/19 02:41:49;;;;;;;;;;;13.10;99.90;;;;;;5000568;28;20012;-85
2023/09/19 02:44:14;;;;;;;;;;;13.00;99.90;;;;;;5001590;27;20016;-85
2023/09/19 02:46:40;;;;;;;;;;;13.00;99.90;;;;;;5017900;28;19952;-85
2023/09/19 02:49:06;;;;;;;;;;;13.10;99.90;;;;;;4999411;28;19935;-86
2023/09/19 02:51:32;;;;;;;;;;;13.00;99.90;;;;;;5001782;28;19928;-87
2023/09/19 02:54:03;;;;;;;;;;;13.00;99.90;;;;;;5016289;28;19925;-86
2023/09/19 02:56:29;;;;;;;;;;;13.00;99.90;;;;;;5018692;27;20573;-87
2023/09/19 02:58:55;;;;;;;;;;;13.00;99.90;;;;;;5000259;28;19972;-86
2023/09/19 03:01:21;;;;;;;;;;;13.00;99.90;;;;;;5010708;28;19928;-86
2023/09/19 03:03:46;;;;;;;;;;;12.90;99.90;;;;;;5018980;28;20371;-86
2023/09/19 03:06:13;;;;;;;;;;;12.90;99.90;;;;;;5005773;28;19985;-86
2023/09/19 03:08:39;;;;;;;;;;;13.00;99.90;;;;;;5023728;28;19921;-87
2023/09/19 03:11:05;;;;;;;;;;;13.00;99.90;;;;;;5004057;28;19935;-86
2023/09/19 03:13:32;;;;;;;;;;;13.00;99.90;;;;;;5021401;28;19940;-86
2023/09/19 03:15:58;;;;;;;;;;;13.00;99.90;;;;;;5008367;27;19931;-86
2023/09/19 03:18:27;;;;;;;;;;;13.00;99.90;;;;;;5004414;28;19928;-86
2023/09/19 03:20:54;;;;;;;;;;;13.00;99.90;;;;;;5030774;28;19929;-86
2023/09/19 03:23:20;;;;;;;;;;;13.10;99.90;;;;;;5006240;28;19928;-85
2023/09/19 03:25:46;;;;;;;;;;;13.10;99.90;;;;;;5008955;28;20356;-86
2023/09/19 03:28:12;;;;;;;;;;;13.10;99.90;;;;;;5007097;28;19925;-86
2023/09/19 03:30:38;;;;;;;;;;;13.10;99.90;;;;;;5000874;28;19929;-86
2023/09/19 03:33:04;;;;;;;;;;;13.10;99.90;;;;;;5021428;28;19932;-86
2023/09/19 03:35:30;;;;;;;;;;;13.10;99.90;;;;;;5006133;28;20012;-87
2023/09/19 03:37:56;;;;;;;;;;;13.10;99.90;;;;;;5004490;28;19928;-86
2023/09/19 03:40:23;;;;;;;;;;;13.20;99.90;;;;;;5006568;28;20453;-86
2023/09/19 03:42:49;;;;;;;;;;;13.20;99.90;;;;;;4999589;28;19931;-86
2023/09/19 03:45:15;;;;;;;;;;;13.20;99.90;;;;;;5005065;28;19924;-86
2023/09/19 03:47:44;;;;;;;;;;;13.20;99.90;;;;;;5004757;28;19921;-86
2023/09/19 03:50:15;;;;;;;;;;;13.20;99.90;;;;;;4996880;28;19931;-85
2023/09/19 03:52:40;;;;;;;;;;;13.20;99.90;;;;;;5022330;28;19932;-85
2023/09/19 03:55:06;;;;;;;;;;;13.20;99.90;;;;;;5009875;28;19940;-86
2023/09/19 03:57:32;;;;;;;;;;;13.20;99.90;;;;;;5007358;28;19993;-85
2023/09/19 03:59:58;;;;;;;;;;;13.20;99.90;;;;;;5018943;28;20546;-85
2023/09/19 04:02:24;;;;;;;;;;;13.10;99.90;;;;;;5012730;28;19948;-86
2023/09/19 04:04:50;;;;;;;;;;;13.10;99.90;;;;;;5017484;28;19937;-87
2023/09/19 04:07:16;;;;;;;;;;;13.10;99.90;;;;;;4997029;28;20323;-87
2023/09/19 04:09:42;;;;;;;;;;;13.10;99.90;;;;;;4995208;28;19928;-85
2023/09/19 04:12:11;;;;;;;;;;;13.10;99.90;;;;;;5023239;27;20457;-86
2023/09/19 04:14:39;;;;;;;;;;;13.10;99.90;;;;;;4985561;28;19928;-86
2023/09/19 04:17:05;;;;;;;;;;;13.10;99.90;;;;;;4981002;28;19930;-85
2023/09/19 04:19:31;;;;;;;;;;;13.10;99.90;;;;;;4977893;28;20186;-86
2023/09/19 04:21:57;;;;;;;;;;;13.10;99.90;;;;;;4976985;28;20093;-86
2023/09/19 04:24:22;;;;;;;;;;;13.20;99.90;;;;;;4987863;28;19926;-85
2023/09/19 04:26:48;;;;;;;;;;;13.20;99.90;;;;;;4996435;28;20030;-84
2023/09/19 04:29:14;;;;;;;;;;;13.20;99.90;;;;;;4992452;28;19984;-86
2023/09/19 04:31:40;;;;;;;;;;;13.20;99.90;;;;;;4992357;28;20040;-85
2023/09/19 04:34:06;;;;;;;;;;;13.30;99.90;;;;;;4978434;28;20326;-85
2023/09/19 04:36:31;;;;;;;;;;;13.30;99.90;;;;;;4973909;28;19955;-85
2023/09/19 04:38:57;;;;;;;;;;;13.30;99.90;;;;;;4992188;28;19929;-86
2023/09/19 04:41:23;;;;;;;;;;;13.40;99.90;;;;;;4988781;28;19926;-86
2023/09/19 04:43:50;;;;;;;;;;;13.40;99.90;;;;;;4976559;28;19925;-86
2023/09/19 04:46:17;;;;;;;;;;;13.40;99.90;;;;;;4985617;28;20489;-87
2023/09/19 04:48:43;;;;;;;;;;;13.40;99.90;;;;;;4993553;28;19996;-86
2023/09/19 04:51:10;;;;;;;;;;;13.40;99.90;;;;;;4987109;28;19925;-82
2023/09/19 04:53:36;;;;;;;;;;;13.50;99.90;;;;;;4977872;28;20379;-83
2023/09/19 04:56:03;;;;;;;;;;;13.50;99.90;;;;;;4983143;28;19947;-83
2023/09/19 04:58:29;;;;;;;;;;;13.50;99.90;;;;;;4976884;28;19929;-83
2023/09/19 05:00:56;;;;;;;;;;;13.50;99.90;;;;;;4981410;28;19932;-83
2023/09/19 05:03:22;;;;;;;;;;;13.50;99.90;;;;;;4986480;28;20025;-83
2023/09/19 05:05:48;;;;;;;;;;;13.50;99.90;;;;;;4991251;28;19948;-84
2023/09/19 05:08:14;;;;;;;;;;;13.50;99.90;;;;;;4973417;28;20467;-84
2023/09/19 05:10:40;;;;;;;;;;;13.50;99.90;;;;;;4990575;28;19933;-85
2023/09/19 05:13:10;;;;;;;;;;;13.50;99.90;;;;;;4987556;28;19937;-85
2023/09/19 05:15:36;;;;;;;;;;;13.50;99.90;;;;;;4998426;28;20443;-84
2023/09/19 05:18:03;;;;;;;;;;;13.50;99.90;;;;;;5017028;28;19928;-85
2023/09/19 05:20:32;;;;;;;;;;;13.50;99.90;;;;;;5001531;28;19982;-87
2023/09/19 05:23:01;;;;;;;;;;;13.50;99.90;;;;;;5005628;28;19940;-81
2023/09/19 05:25:29;;;;;;;;;;;13.50;99.90;;;;;;5017895;27;20101;-80
2023/09/19 05:27:57;;;;;;;;;;;13.50;99.90;;;;;;5017323;28;20298;-80
2023/09/19 05:30:23;;;;;;;;;;;13.50;99.90;;;;;;5035376;28;19925;-83
2023/09/19 05:32:49;;;;;;;;;;;13.50;99.90;;;;;;5004013;28;20096;-85
2023/09/19 05:35:15;;;;;;;;;;;13.40;99.90;;;;;;5015991;28;19932;-87
2023/09/19 05:37:44;;;;;;;;;;;13.40;99.90;;;;;;5000347;28;20012;-85
2023/09/19 05:40:11;;;;;;;;;;;13.40;99.90;;;;;;5002259;28;20036;-84
2023/09/19 05:42:39;;;;;;;;;;;13.40;99.90;;;;;;5000035;28;19934;-85
2023/09/19 05:45:06;;;;;;;;;;;13.40;99.90;;;;;;5019759;28;20363;-85
2023/09/19 05:47:32;;;;;;;;;;;13.40;99.90;;;;;;4999261;27;20713;-84
2023/09/19 05:49:59;;;;;;;;;;;13.40;99.90;;;;;;5013412;28;20658;-85
2023/09/19 05:52:25;;;;;;;;;;;13.40;99.90;;;;;;5003022;27;20098;-85
2023/09/19 05:54:50;;;;;;;;;;;13.30;99.90;;;;;;5027082;27;20019;-88
2023/09/19 05:57:16;;;;;;;;;;;13.30;99.90;;;;;;5014201;28;20058;-81
2023/09/19 05:59:43;;;;;;;;;;;13.30;99.90;;;;;;5001666;28;19967;-87
2023/09/19 06:02:09;;;;;;;;;;;13.30;99.90;;;;;;5000047;28;19928;-85
2023/09/19 06:04:35;;;;;;;;;;;13.30;99.90;;;;;;4999951;28;19924;-86
2023/09/19 06:07:05;;;;;;;;;;;13.20;99.90;;;;;;5001277;28;19936;-86
2023/09/19 06:09:31;;;;;;;;;;;13.20;99.90;;;;;;5009766;28;19937;-86
2023/09/19 06:11:57;;;;;;;;;;;13.20;99.90;;;;;;5005298;28;20295;-87
2023/09/19 06:14:24;;;;;;;;;;;13.20;99.90;;;;;;5000047;28;19976;-83
2023/09/19 06:16:50;;;;;;;;;;;13.20;99.90;;;;;;5019153;28;19952;-78
2023/09/19 06:19:15;;;;;;;;;;;13.20;99.90;;;;;;5014489;28;20387;-79
2023/09/19 06:21:45;;;;;;;;;;;13.20;99.90;;;;;;5015630;28;19921;-79
2023/09/19 06:24:11;;;;;;;;;;;13.20;99.90;;;;;;5000196;28;19959;-78
2023/09/19 06:26:37;;;;;;;;;;;13.20;99.90;;;;;;4999917;28;19917;-79
2023/09/19 06:29:04;;;;;;;;;;;13.20;99.90;;;;;;5003078;28;19936;-78
2023/09/19 06:31:31;;;;;;;;;;;13.30;99.90;;;;;;5008399;27;19929;-78
2023/09/19 06:33:56;;;;;;;;;;;13.30;99.90;;;;;;5020233;28;20354;-85
2023/09/19 06:36:22;;;;;;;;;;;13.30;99.90;;;;;;5021754;28;19978;-85
2023/09/19 06:38:48;;;;;;;;;;;13.30;99.90;;;;;;5006841;27;20060;-86
2023/09/19 06:41:17;;;;;;;;;;;13.30;99.90;;;;;;5019941;28;20276;-86
2023/09/19 06:43:42;;;;;;;;;;;13.30;99.90;;;;;;5003545;28;19970;-86
2023/09/19 06:46:09;;;;;;;;;;;13.30;99.90;;;;;;5019851;28;20263;-86
2023/09/19 06:48:35;;;;;;;;;;;13.20;99.90;;;;;;5002557;28;19954;-77
2023/09/19 06:51:05;;;;;;;;;;;13.20;99.90;;;;;;5017500;28;19925;-77
2023/09/19 06:53:31;;;;;;;;;;;13.20;99.90;;;;;;5021718;27;19921;-85
2023/09/19 06:55:57;;;;;;;;;;;13.20;99.90;;;;;;5020380;28;20035;-85
2023/09/19 06:58:23;;;;;;;;;;;13.20;99.90;;;;;;5002507;28;19936;-85
2023/09/19 07:00:50;;;;;;;;;;;13.20;99.90;;;;;;5021346;28;19947;-85
2023/09/19 07:03:20;;;;;;;;;;;13.20;99.90;;;;;;5018679;28;20367;-85
2023/09/19 07:05:47;;;;;;;;;;;13.30;99.90;;;;;;4997591;28;19921;-83
2023/09/19 07:08:13;;;;;;;;;;;13.40;99.90;;;;;;5003760;28;19929;-84
2023/09/19 07:10:48;;;;;;;;;;;13.50;99.90;;;;;;5021211;28;19969;-77
2023/09/19 07:13:16;;;;;;;;;;;13.60;99.90;;;;;;5020262;27;19921;-78
2023/09/19 07:15:46;;;;;;;;;;;13.70;99.90;;;;;;5020909;28;21101;-77
2023/09/19 07:18:14;;;;;;;;;;;13.80;99.90;;;;;;5002969;28;20367;-78
2023/09/19 07:20:45;;;;;;;;;;;13.90;99.90;;;;;;5021120;28;19925;-78
2023/09/19 07:23:14;;;;;;;;;;;13.90;99.90;;;;;;5001828;28;19972;-79
2023/09/19 07:25:40;;;;;;;;;;;14.00;99.90;;;;;;5018125;28;20011;-78
2023/09/19 07:28:06;;;;;;;;;;;14.00;99.90;;;;;;5092844;27;20015;-79
2023/09/19 07:30:32;;;;;;;;;;;14.00;99.90;;;;;;5019836;28;19950;-78
2023/09/19 07:32:57;;;;;;;;;;;14.10;99.90;;;;;;5003584;28;20277;-79
2023/09/19 07:35:23;;;;;;;;;;;14.20;99.90;;;;;;5020274;28;20195;-79
2023/09/19 07:37:49;;;;;;;;;;;14.20;99.90;;;;;;5091764;27;19924;-76
2023/09/19 07:40:15;;;;;;;;;;;14.20;99.90;;;;;;5002133;27;19927;-77
2023/09/19 07:42:44;;;;;;;;;;;14.30;99.90;;;;;;5004690;28;20305;-76
2023/09/19 07:45:14;;;;;;;;;;;14.30;99.90;;;;;;5021510;27;19925;-78
2023/09/19 07:47:43;;;;;;;;;;;14.30;99.90;;;;;;5020488;27;20371;-78
2023/09/19 07:50:09;;;;;;;;;;;14.20;99.90;;;;;;5003491;28;20375;-77
2023/09/19 07:52:35;;;;;;;;;;;14.30;99.90;;;;;;5002641;27;19924;-77
2023/09/19 07:55:06;;;;;;;;;;;14.40;99.90;;;;;;5010234;28;20239;-77
2023/09/19 07:57:34;;;;;;;;;;;14.60;99.90;;;;;;5019361;28;20057;-78
2023/09/19 08:00:00;;;;;;;;;;;14.80;99.90;;;;;;5002275;28;19940;-78
2023/09/19 08:02:25;;;;;;;;;;;14.80;99.90;;;;;;5015359;27;19921;-78
2023/09/19 08:04:52;;;;;;;;;;;14.90;99.90;;;;;;5005063;28;19968;-78
2023/09/19 08:07:18;;;;;;;;;;;14.90;99.90;;;;;;5020431;28;19935;-78
2023/09/19 08:09:48;;;;;;;;;;;15.00;99.90;;;;;;5019023;28;20518;-83
2023/09/19 08:12:14;;;;;;;;;;;15.00;99.90;;;;;;4992621;28;19940;-84
2023/09/19 08:14:43;;;;;;;;;;;15.00;99.90;;;;;;5024758;27;19924;-82
2023/09/19 08:17:09;;;;;;;;;;;15.10;99.90;;;;;;5019547;28;20362;-82
2023/09/19 08:19:34;;;;;;;;;;;15.20;99.90;;;;;;5001681;28;19968;-84
2023/09/19 08:22:03;;;;;;;;;;;15.20;99.90;;;;;;5021144;28;19929;-82
2023/09/19 08:24:29;;;;;;;;;;;15.30;99.90;;;;;;5016919;28;19921;-76
2023/09/19 08:26:56;;;;;;;;;;;15.50;99.90;;;;;;5019721;28;19925;-77
2023/09/19 08:29:27;;;;;;;;;;;15.50;99.90;;;;;;5015799;28;19932;-78
2023/09/19 08:31:59;;;;;;;;;;;15.60;99.90;;;;;;5102209;27;19929;-78
2023/09/19 08:34:25;;;;;;;;;;;15.60;99.90;;;;;;5044528;28;20019;-77
2023/09/19 08:36:52;;;;;;;;;;;15.70;99.90;;;;;;5002464;28;19979;-76
2023/09/19 08:39:19;;;;;;;;;;;15.70;99.90;;;;;;5000920;27;19952;-76
2023/09/19 08:41:44;;;;;;;;;;;15.70;99.90;;;;;;5015154;28;19929;-78
2023/09/19 08:44:10;;;;;;;;;;;15.80;99.90;;;;;;5018727;28;20247;-78
2023/09/19 08:46:38;;;;;;;;;;;15.80;99.90;;;;;;5016992;28;20007;-77
2023/09/19 08:49:07;;;;;;;;;;;15.90;99.90;;;;;;5002155;28;19981;-82
2023/09/19 08:51:39;;;;;;;;;;;16.00;99.90;;;;;;5012716;28;19967;-82
2023/09/19 08:54:05;;;;;;;;;;;16.10;99.90;;;;;;5015946;28;19929;-83
2023/09/19 08:56:32;;;;;;;;;;;16.10;99.90;;;;;;5017642;28;21142;-82
2023/09/19 08:59:07;;;;;;;;;;;16.10;99.90;;;;;;5006722;28;20286;-76
2023/09/19 09:01:33;;;;;;;;;;;16.20;99.90;;;;;;5024526;27;19925;-77
2023/09/19 09:03:59;;;;;;;;;;;16.20;99.90;;;;;;5019906;28;19947;-76
2023/09/19 09:06:25;;;;;;;;;;;16.30;99.90;;;;;;5022427;28;20427;-77
2023/09/19 09:08:52;;;;;;;;;;;16.30;99.90;;;;;;5018428;27;19925;-77
2023/09/19 09:11:18;;;;;;;;;;;16.40;99.90;;;;;;5005496;28;19925;-77
2023/09/19 09:13:46;;;;;;;;;;;16.50;99.90;;;;;;5023071;28;19921;-77
2023/09/19 09:16:18;;;;;;;;;;;16.60;99.90;;;;;;5004202;28;20431;-76
2023/09/19 09:18:45;;;;;;;;;;;16.70;99.90;;;;;;4999912;28;19921;-76
2023/09/19 09:21:13;;;;;;;;;;;16.70;99.90;;;;;;5013884;28;19968;-76
2023/09/19 09:23:39;;;;;;;;;;;16.80;99.90;;;;;;5018999;28;19925;-75
2023/09/19 09:26:06;;;;;;;;;;;17.00;99.90;;;;;;5019052;28;19937;-77
2023/09/19 09:28:33;;;;;;;;;;;17.00;99.90;;;;;;5016751;28;19943;-77
2023/09/19 09:30:59;;;;;;;;;;;17.10;99.90;;;;;;5013153;28;19921;-77
2023/09/19 09:33:25;;;;;;;;;;;17.20;99.90;;;;;;5003397;28;19925;-77
2023/09/19 09:35:58;;;;;;;;;;;17.20;99.90;;;;;;5003473;28;20446;-76
2023/09/19 09:38:27;;;;;;;;;;;17.20;99.90;;;;;;4990836;28;19925;-78
2023/09/19 09:41:00;;;;;;;;;;;17.20;99.90;;;;;;5013957;28;19928;-76
2023/09/19 09:43:30;;;;;;;;;;;17.30;99.90;;;;;;5017372;28;19928;-76
2023/09/19 09:52:00;;;;;;;;;;;17.40;99.90;;;;;;5019091;28;19925;-77
2023/09/19 09:54:33;;;;;;;;;;;17.50;99.90;;;;;;5001134;28;19928;-78
2023/09/19 09:56:59;;;;;;;;;;;17.50;99.90;;;;;;4999632;28;19928;-76
2023/09/19 10:00:20;;;;;;;;;;;17.40;99.90;;;;;;5017308;28;20390;-77
2023/09/19 10:02:46;;;;;;;;;;;17.40;99.90;;;;;;4984448;28;19928;-75
2023/09/19 10:07:52;;;;;;;;;;;17.60;99.90;;;;;;5018361;28;19925;-75
2023/09/19 10:13:13;;;;;;;;;;;17.50;99.90;;;;;;5015723;28;19927;-78
2023/09/19 10:15:46;;;;;;;;;;;17.60;99.90;;;;;;5017489;28;19925;-77
2023/09/19 10:18:17;;;;;;;;;;;17.70;99.90;;;;;;5002121;28;19932;-78
2023/09/19 10:20:45;;;;;;;;;;;17.80;99.90;;;;;;5015934;28;19971;-77
2023/09/19 10:23:14;;;;;;;;;;;17.70;99.90;;;;;;4998636;28;19951;-77
2023/09/19 10:25:47;;;;;;;;;;;17.70;99.90;;;;;;5001383;28;19938;-79
2023/09/19 10:28:13;;;;;;;;;;;17.70;99.90;;;;;;4993193;28;20325;-75
2023/09/19 10:30:50;;;;;;;;;;;17.80;99.90;;;;;;5000842;28;19921;-77
2023/09/19 10:33:22;;;;;;;;;;;17.90;99.90;;;;;;5017770;28;19964;-76
2023/09/19 10:35:49;;;;;;;;;;;17.90;99.90;;;;;;5001259;28;19925;-76
2023/09/19 10:38:19;;;;;;;;;;;17.90;99.90;;;;;;4998796;28;20036;-77
2023/09/19 10:40:48;;;;;;;;;;;17.90;99.90;;;;;;5018768;28;19961;-77
2023/09/19 10:43:18;;;;;;;;;;;17.90;99.90;;;;;;5000000;28;19929;-76
2023/09/19 10:45:44;;;;;;;;;;;17.90;99.90;;;;;;5019782;28;19966;-76
2023/09/19 10:48:10;;;;;;;;;;;18.00;99.90;;;;;;4997099;28;19925;-76
2023/09/19 10:50:41;;;;;;;;;;;18.00;99.90;;;;;;5000596;28;19928;-77
2023/09/19 10:53:10;;;;;;;;;;;18.10;99.90;;;;;;5002843;28;19921;-76
2023/09/19 10:55:37;;;;;;;;;;;18.10;99.90;;;;;;4999972;28;19925;-77
2023/09/19 10:58:13;;;;;;;;;;;18.20;99.90;;;;;;5012747;28;20665;-78
2023/09/19 11:00:53;;;;;;;;;;;18.10;99.90;;;;;;5001415;28;20596;-77
2023/09/19 11:03:21;;;;;;;;;;;18.10;99.90;;;;;;5015627;28;20011;-77
2023/09/19 11:06:06;;;;;;;;;;;18.20;99.90;;;;;;5015307;28;19925;-77
2023/09/19 11:08:51;;;;;;;;;;;18.30;99.90;;;;;;5014062;28;19929;-76
2023/09/19 11:11:36;;;;;;;;;;;18.40;99.90;;;;;;4998764;28;19925;-76
2023/09/19 11:14:14;;;;;;;;;;;18.50;99.90;;;;;;5000778;28;20468;-78
2023/09/19 11:16:39;;;;;;;;;;;18.50;99.90;;;;;;4979946;28;19926;-77
2023/09/19 11:19:07;;;;;;;;;;;18.50;99.90;;;;;;4990482;28;19937;-76
2023/09/19 11:21:33;;;;;;;;;;;18.40;99.90;;;;;;4977204;28;19954;-76
2023/09/19 11:24:22;;;;;;;;;;;18.40;99.90;;;;;;4979546;28;19925;-77
2023/09/19 11:26:48;;;;;;;;;;;18.40;99.90;;;;;;4970087;28;19970;-77
2023/09/19 11:29:33;;;;;;;;;;;18.40;99.90;;;;;;4971070;28;19921;-75
2023/09/19 11:32:01;;;;;;;;;;;18.40;99.90;;;;;;4987874;28;20414;-77
2023/09/19 11:34:36;;;;;;;;;;;18.50;99.90;;;;;;4981963;28;19921;-76
2023/09/19 11:37:22;;;;;;;;;;;18.50;99.90;;;;;;4992479;28;19930;-76
2023/09/19 11:40:16;;;;;;;;;;;18.50;99.90;;;;;;4966344;28;19930;-77
2023/09/19 11:42:42;;;;;;;;;;;18.50;99.90;;;;;;4979672;28;19921;-76
2023/09/19 11:45:29;;;;;;;;;;;18.60;99.90;;;;;;4978102;28;20513;-77
2023/09/19 11:47:56;;;;;;;;;;;18.50;99.90;;;;;;4976787;28;19922;-76
2023/09/19 11:50:23;;;;;;;;;;;18.40;99.90;;;;;;4986823;28;19940;-76
2023/09/19 11:52:50;;;;;;;;;;;18.40;99.90;;;;;;4986965;28;20439;-77
2023/09/19 11:55:21;;;;;;;;;;;18.40;99.90;;;;;;4987743;28;19925;-77
2023/09/19 11:57:50;;;;;;;;;;;18.30;99.90;;;;;;4989136;28;20415;-76
2023/09/19 12:00:23;;;;;;;;;;;18.30;99.90;;;;;;4975417;28;19929;-76
2023/09/19 12:02:54;;;;;;;;;;;18.30;99.90;;;;;;4989974;28;20376;-76
2023/09/19 12:05:27;;;;;;;;;;;18.20;99.90;;;;;;4993431;28;19933;-77
2023/09/19 12:07:56;;;;;;;;;;;18.20;99.90;;;;;;4988038;28;19925;-76
2023/09/19 12:10:23;;;;;;;;;;;18.20;99.90;;;;;;4983736;28;19936;-76
2023/09/19 12:12:49;;;;;;;;;;;18.10;99.90;;;;;;4988631;28;20530;-75
2023/09/19 12:15:17;;;;;;;;;;;18.10;99.90;;;;;;4995578;28;20063;-77
2023/09/19 12:17:43;;;;;;;;;;;18.10;99.90;;;;;;4992106;28;19921;-77
2023/09/19 12:20:13;;;;;;;;;;;18.00;99.90;;;;;;4980515;28;20006;-77
2023/09/19 12:22:39;;;;;;;;;;;18.00;99.90;;;;;;4991540;28;19955;-77
2023/09/19 12:25:05;;;;;;;;;;;17.90;99.90;;;;;;4988754;28;20802;-75
2023/09/19 12:27:42;;;;;;;;;;;17.90;99.90;;;;;;4986286;28;22153;-76
2023/09/19 12:30:09;;;;;;;;;;;17.90;99.90;;;;;;4984205;28;19952;-77
2023/09/19 12:32:35;;;;;;;;;;;17.80;99.90;;;;;;4990944;28;19964;-75
2023/09/19 12:35:07;;;;;;;;;;;17.80;99.90;;;;;;4981229;28;19944;-76
2023/09/19 12:37:36;;;;;;;;;;;17.80;99.90;;;;;;4983923;28;19928;-75
2023/09/19 12:40:18;;;;;;;;;;;17.90;99.90;;;;;;4984008;28;20144;-75
2023/09/19 12:42:46;;;;;;;;;;;17.90;99.90;;;;;;4979148;28;19930;-77
2023/09/19 12:45:15;;;;;;;;;;;17.90;99.90;;;;;;4987011;28;20376;-76
2023/09/19 12:47:43;;;;;;;;;;;17.90;99.90;;;;;;4987658;28;19921;-76
2023/09/19 12:50:13;;;;;;;;;;;18.00;99.90;;;;;;4973545;28;19922;-77
2023/09/19 12:52:43;;;;;;;;;;;18.00;99.90;;;;;;4974053;28;19925;-76
2023/09/19 12:55:19;;;;;;;;;;;18.00;99.90;;;;;;4982914;28;19980;-77
2023/09/19 12:57:55;;;;;;;;;;;18.00;99.90;;;;;;4986830;28;19921;-77
2023/09/19 13:00:23;;;;;;;;;;;18.00;99.90;;;;;;4977255;28;19935;-76
2023/09/19 13:03:08;;;;;;;;;;;17.90;99.90;;;;;;4990611;28;19978;-76
2023/09/19 13:05:53;;;;;;;;;;;17.90;99.90;;;;;;4985341;28;20333;-78
2023/09/19 13:08:31;;;;;;;;;;;17.90;99.90;;;;;;4974076;28;20336;-76
2023/09/19 13:11:06;;;;;;;;;;;18.00;99.90;;;;;;4987066;28;20372;-77
2023/09/19 13:13:33;;;;;;;;;;;17.90;99.90;;;;;;4987615;28;19925;-77
2023/09/19 13:16:01;;;;;;;;;;;18.00;99.90;;;;;;4983842;28;19925;-75
2023/09/19 13:18:27;;;;;;;;;;;17.90;99.90;;;;;;4984665;28;20322;-75
2023/09/19 13:21:05;;;;;;;;;;;17.90;99.90;;;;;;4999033;28;19935;-75
2023/09/19 13:23:31;;;;;;;;;;;17.90;99.90;;;;;;5002687;28;19925;-75
2023/09/19 13:25:56;;;;;;;;;;;17.90;99.90;;;;;;4977364;28;19922;-80
2023/09/19 13:28:22;;;;;;;;;;;17.90;99.90;;;;;;4972829;28;19932;-81
2023/09/19 13:30:48;;;;;;;;;;;17.90;99.90;;;;;;4982983;28;19933;-81
2023/09/19 13:33:20;;;;;;;;;;;17.90;99.90;;;;;;5026556;28;20009;-84
2023/09/19 13:35:48;;;;;;;;;;;17.90;99.90;;;;;;4998149;28;19932;-82
2023/09/19 13:38:14;;;;;;;;;;;17.90;99.90;;;;;;4999636;28;19950;-81
2023/09/19 13:40:41;;;;;;;;;;;18.00;99.90;;;;;;4996782;28;20348;-81
2023/09/19 13:43:07;;;;;;;;;;;18.00;99.90;;;;;;4977021;28;19983;-82
2023/09/19 13:45:33;;;;;;;;;;;18.00;99.90;;;;;;5020432;28;19963;-75
2023/09/19 13:47:59;;;;;;;;;;;18.00;99.90;;;;;;4995726;28;19971;-76
2023/09/19 13:50:28;;;;;;;;;;;18.00;99.90;;;;;;4998047;28;20370;-76
2023/09/19 13:52:54;;;;;;;;;;;18.00;99.90;;;;;;4999002;28;19922;-77
2023/09/19 13:55:20;;;;;;;;;;;18.00;99.90;;;;;;4978215;28;19929;-76
2023/09/19 13:57:49;;;;;;;;;;;18.00;99.90;;;;;;4975079;28;19933;-76
2023/09/19 14:00:16;;;;;;;;;;;17.90;99.90;;;;;;4994883;28;19921;-76
2023/09/19 14:02:46;;;;;;;;;;;18.00;99.90;;;;;;4979040;28;19922;-76
2023/09/19 14:05:16;;;;;;;;;;;18.00;99.90;;;;;;4991538;28;19922;-76
2023/09/19 14:07:42;;;;;;;;;;;18.00;99.90;;;;;;4997613;28;19921;-75
2023/09/19 14:10:14;;;;;;;;;;;18.10;99.90;;;;;;4996759;28;19929;-76
2023/09/19 14:12:43;;;;;;;;;;;18.10;99.90;;;;;;4996932;28;20348;-76
2023/09/19 14:15:09;;;;;;;;;;;18.20;99.90;;;;;;5012746;28;19928;-76
2023/09/19 14:17:34;;;;;;;;;;;18.20;99.90;;;;;;5019972;28;19925;-77
2023/09/19 14:20:00;;;;;;;;;;;18.20;99.90;;;;;;5000751;28;19968;-76
2023/09/19 14:22:26;;;;;;;;;;;18.30;99.90;;;;;;5020485;28;20424;-77
2023/09/19 14:24:52;;;;;;;;;;;18.20;99.90;;;;;;5018522;28;20213;-77
2023/09/19 14:27:18;;;;;;;;;;;18.30;99.90;;;;;;5002418;28;20473;-77
2023/09/19 14:29:44;;;;;;;;;;;18.30;99.90;;;;;;5002793;28;20053;-77
2023/09/19 14:32:10;;;;;;;;;;;18.30;99.90;;;;;;5001147;28;20264;-76
2023/09/19 14:34:41;;;;;;;;;;;18.30;99.90;;;;;;5020391;28;19925;-77